Stella Ada — 9V9082 — position and weather

sailwx.info

Track history (hours):
 
Tides and Currents Weather Stations Pressure Air Temp Water Temp Dewpoint Dewpoint Depression Visibility Wind Speed Wind Dir Waves Ship Positions

Stella Ada

Last reported at 2016-Sep-14 12:27 UTC. Time now 2016-Sep-25 17:26 UTC.
Position S 18°22' E 118°04'.
Warning: this ship's position is 11 days out of date.

Length 296 m; draft 18.1 m.

Type: Cargo ship. MMSI: 566089000.

Date/timePositionNaut miles runAvg speedWind from/ knotsBaromVisibWave heightAir tempDewpointWater temp
2016-Sep-14 12:27S 18°22' E 118°04'2110.9
2016-Sep-14 10:33S 18°42' E 118°10'101 6.2
2016-Sep-13 18:22S 20°20' E 118°35'0 0.0
2016-Sep-13 17:10S 20°20' E 118°35'0 0.0
2016-Sep-13 09:22S 20°20' E 118°35'0 0.0
2016-Sep-13 06:22S 20°20' E 118°35'0 0.0
2016-Sep-12 21:28S 20°20' E 118°35'2 1.0
2016-Sep-12 19:33S 20°18' E 118°35'2110.5
2016-Sep-12 17:33S 19°58' E 118°29'5 1.8
2016-Sep-12 14:33S 19°52' E 118°29'4 3.8
2016-Sep-12 13:33S 19°49' E 118°26'1312.9
2016-Sep-12 12:33S 19°37' E 118°24'1313.3
2016-Sep-12 11:34S 19°24' E 118°21'1312.8
2016-Sep-12 10:32S 19°11' E 118°17'3913.3
2016-Sep-12 07:34S 18°33' E 118°07'10412.6
2016-Sep-11 23:18S 16°52' E 117°41'1012.9
2016-Sep-11 22:33S 16°42' E 117°39'1312.9
2016-Sep-11 21:33S 16°30' E 117°36'1313.0
2016-Sep-11 20:33S 16°17' E 117°33'1313.0
2016-Sep-11 19:33S 16°04' E 117°30'  
Track history (hours):
 
Tides and Currents Weather Stations Pressure Air Temp Water Temp Dewpoint Dewpoint Depression Visibility Wind Speed Wind Dir Waves Ship Positions

Stella Ada

Last reported at 2016-Sep-14 12:27 UTC. Time now 2016-Sep-25 17:26 UTC.
Position S 18°22' E 118°04'.
Warning: this ship's position is 11 days out of date.

Length 296 m; draft 18.1 m.

Type: Cargo ship. MMSI: 566089000.

Date/timePositionNaut miles runAvg speedWind from/ knotsBaromVisibWave heightAir tempDewpointWater temp
2016-Sep-14 12:27S 18°22' E 118°04'2110.9
2016-Sep-14 10:33S 18°42' E 118°10'101 6.2
2016-Sep-13 18:22S 20°20' E 118°35'0 0.0
2016-Sep-13 17:10S 20°20' E 118°35'0 0.0
2016-Sep-13 09:22S 20°20' E 118°35'0 0.0
2016-Sep-13 06:22S 20°20' E 118°35'0 0.0
2016-Sep-12 21:28S 20°20' E 118°35'2 1.0
2016-Sep-12 19:33S 20°18' E 118°35'2110.5
2016-Sep-12 17:33S 19°58' E 118°29'5 1.8
2016-Sep-12 14:33S 19°52' E 118°29'4 3.8
2016-Sep-12 13:33S 19°49' E 118°26'1312.9
2016-Sep-12 12:33S 19°37' E 118°24'1313.3
2016-Sep-12 11:34S 19°24' E 118°21'1312.8
2016-Sep-12 10:32S 19°11' E 118°17'3913.3
2016-Sep-12 07:34S 18°33' E 118°07'10412.6
2016-Sep-11 23:18S 16°52' E 117°41'1012.9
2016-Sep-11 22:33S 16°42' E 117°39'1312.9
2016-Sep-11 21:33S 16°30' E 117°36'1313.0
2016-Sep-11 20:33S 16°17' E 117°33'1313.0
2016-Sep-11 19:33S 16°04' E 117°30'  

Dump ship's entire track history